Time;durP1;ratioP1;P1;durP2;ratioP2;P2;SDS_P1;SDS_P2;PMS_P1;PMS_P2;Temp;Humidity;BMP_temperature;BMP_pressure;BME280_temperature;BME280_humidity;BME280_pressure;Samples;Min_cycle;Max_cycle;Signal;HPM_P1;HPM_P2
2021/03/08 00:01:25;;;;;;;0.67;0.30;;;6.80;99.90;;;;;;5094670;28;20206;-84
2021/03/08 00:03:56;;;;;;;2.77;0.67;;;6.80;99.90;;;;;;5083523;28;20600;-84
2021/03/08 00:06:27;;;;;;;2.97;0.50;;;6.40;99.90;;;;;;5093740;28;20209;-85
2021/03/08 00:09:00;;;;;;;2.40;0.70;;;6.00;99.90;;;;;;5081336;28;20616;-83
2021/03/08 00:11:30;;;;;;;1.57;0.50;;;5.80;99.90;;;;;;5085916;28;20195;-87
2021/03/08 00:14:01;;;;;;;1.63;0.60;;;5.70;99.90;;;;;;5076639;28;20203;-87
2021/03/08 00:16:33;;;;;;;1.57;0.63;;;5.70;99.90;;;;;;5078042;28;20227;-87
2021/03/08 00:19:08;;;;;;;5.97;0.90;;;5.90;99.90;;;;;;5058633;28;20229;-87
2021/03/08 00:21:39;;;;;;;2.70;0.80;;;6.20;99.90;;;;;;5076612;28;20250;-86
2021/03/08 00:24:13;;;;;;;1.97;1.00;;;6.50;99.90;;;;;;5095363;28;20234;-86
2021/03/08 00:26:45;;;;;;;3.90;0.80;;;6.30;99.90;;;;;;5097867;28;20223;-86
2021/03/08 00:29:18;;;;;;;2.33;0.80;;;6.00;99.90;;;;;;5096388;28;20674;-84
2021/03/08 00:31:48;;;;;;;2.20;0.70;;;5.90;99.90;;;;;;5088413;28;20207;-85
2021/03/08 00:34:19;;;;;;;3.80;0.80;;;5.70;99.90;;;;;;5063387;28;20302;-84
2021/03/08 00:36:49;;;;;;;2.13;0.70;;;5.70;99.90;;;;;;5085283;28;20227;-84
2021/03/08 00:39:22;;;;;;;3.80;0.77;;;5.70;99.90;;;;;;5094708;28;20523;-83
2021/03/08 00:41:56;;;;;;;3.07;0.70;;;5.80;99.90;;;;;;5093489;28;20518;-84
2021/03/08 00:44:28;;;;;;;4.83;0.97;;;5.80;99.90;;;;;;5075099;28;20208;-84
2021/03/08 00:46:59;;;;;;;4.23;0.77;;;5.70;99.90;;;;;;5041836;28;20228;-83
2021/03/08 00:49:30;;;;;;;2.27;0.83;;;5.70;99.90;;;;;;5092556;28;20199;-84
2021/03/08 00:52:01;;;;;;;6.03;2.00;;;5.70;99.90;;;;;;5093965;28;20518;-85
2021/03/08 00:54:34;;;;;;;4.40;1.47;;;5.80;99.90;;;;;;5102825;28;20195;-82
2021/03/08 00:57:05;;;;;;;6.17;1.07;;;5.70;99.90;;;;;;5080612;28;20231;-85
2021/03/08 00:59:37;;;;;;;4.17;1.43;;;5.60;99.90;;;;;;5094399;28;20223;-86
2021/03/08 01:02:08;;;;;;;7.63;2.70;;;5.40;99.90;;;;;;5087441;28;20333;-87
2021/03/08 01:04:39;;;;;;;2.60;1.30;;;5.40;99.90;;;;;;5081701;28;20283;-86
2021/03/08 01:07:10;;;;;;;6.93;1.90;;;5.40;99.90;;;;;;5069063;28;20260;-85
2021/03/08 01:09:41;;;;;;;5.77;1.40;;;5.40;99.90;;;;;;5089404;28;20745;-86
2021/03/08 01:12:13;;;;;;;4.77;0.90;;;5.40;99.90;;;;;;5096520;28;20352;-83
2021/03/08 01:14:43;;;;;;;2.53;0.90;;;5.50;99.90;;;;;;5097304;28;20198;-88
2021/03/08 01:17:13;;;;;;;6.17;1.37;;;5.50;99.90;;;;;;5077768;28;20714;-87
2021/03/08 01:19:43;;;;;;;6.83;1.40;;;5.60;99.90;;;;;;5098616;28;20223;-89
2021/03/08 01:22:13;;;;;;;7.53;2.60;;;5.70;99.90;;;;;;5099026;28;20203;-88
2021/03/08 01:24:54;;;;;;;11.73;3.97;;;5.50;99.90;;;;;;5097443;28;20199;-87
2021/03/08 01:27:25;;;;;;;6.77;2.30;;;5.20;99.90;;;;;;5086021;28;20218;-85
2021/03/08 01:30:02;;;;;;;5.13;2.47;;;5.10;99.90;;;;;;5093104;28;20289;-87
2021/03/08 01:32:34;;;;;;;6.23;2.53;;;5.20;99.90;;;;;;5086715;28;20199;-89
2021/03/08 01:35:06;;;;;;;5.10;1.73;;;5.30;99.90;;;;;;5097597;28;20207;-83
2021/03/08 01:37:37;;;;;;;5.17;2.17;;;5.40;99.90;;;;;;5093771;28;20278;-84
2021/03/08 01:40:12;;;;;;;7.83;2.93;;;5.40;99.90;;;;;;5100255;28;20247;-85
2021/03/08 01:42:44;;;;;;;7.03;1.80;;;5.50;99.90;;;;;;5109084;28;20213;-85
2021/03/08 01:45:17;;;;;;;7.30;1.87;;;5.50;99.90;;;;;;5110479;28;20327;-85
2021/03/08 01:47:51;;;;;;;7.00;2.00;;;5.50;99.90;;;;;;5108618;28;20206;-87
2021/03/08 01:50:29;;;;;;;4.07;1.87;;;5.50;99.90;;;;;;5096006;28;20198;-84
2021/03/08 01:53:01;;;;;;;4.27;1.40;;;5.50;99.90;;;;;;5080988;28;20207;-82
2021/03/08 01:55:34;;;;;;;6.17;1.77;;;5.50;99.90;;;;;;5079644;28;20327;-85
2021/03/08 01:58:07;;;;;;;6.33;2.43;;;5.50;99.90;;;;;;5081891;28;20342;-86
2021/03/08 02:00:38;;;;;;;9.43;2.93;;;5.50;99.90;;;;;;5089543;28;20265;-89
2021/03/08 02:03:11;;;;;;;9.80;3.53;;;5.60;99.90;;;;;;5083197;28;20276;-89
2021/03/08 02:05:44;;;;;;;5.47;2.87;;;5.50;99.90;;;;;;5067225;28;20203;-85
2021/03/08 02:08:18;;;;;;;7.67;3.27;;;5.40;99.90;;;;;;5091219;28;20211;-87
2021/03/08 02:10:51;;;;;;;11.17;5.40;;;5.40;99.90;;;;;;5092014;28;20214;-85
2021/03/08 02:13:52;;;;;;;13.17;7.50;;;5.30;99.90;;;;;;5085933;28;20924;-85
2021/03/08 02:16:27;;;;;;;4.47;2.27;;;5.30;99.90;;;;;;5074287;28;20619;-86
2021/03/08 02:19:03;;;;;;;9.40;2.47;;;5.10;99.90;;;;;;5058620;28;20227;-87
2021/03/08 02:22:07;;;;;;;9.03;1.63;;;5.20;99.90;;;;;;5078488;28;20614;-87
2021/03/08 02:25:12;;;;;;;7.20;1.77;;;5.10;99.90;;;;;;5087802;28;20210;-88
2021/03/08 02:28:27;;;;;;;5.53;1.33;;;4.80;99.90;;;;;;5079362;28;20331;-87
2021/03/08 02:31:01;;;;;;;3.07;1.40;;;4.70;99.90;;;;;;5082309;28;20725;-86
2021/03/08 02:33:34;;;;;;;4.43;1.70;;;4.70;99.90;;;;;;5085440;28;20205;-87
2021/03/08 02:36:09;;;;;;;1.73;1.20;;;4.50;99.90;;;;;;5072433;28;20816;-85
2021/03/08 02:38:45;;;;;;;4.40;1.10;;;4.50;99.90;;;;;;5086184;28;20279;-83
2021/03/08 02:41:17;;;;;;;4.93;1.27;;;4.50;99.90;;;;;;5089693;28;20209;-84
2021/03/08 02:43:51;;;;;;;5.83;1.40;;;4.40;99.90;;;;;;5087108;28;20212;-85
2021/03/08 02:46:28;;;;;;;3.67;1.50;;;4.50;99.90;;;;;;5056326;28;20200;-86
2021/03/08 02:49:02;;;;;;;5.20;1.40;;;4.40;99.90;;;;;;5087016;28;20272;-86
2021/03/08 02:51:38;;;;;;;4.17;1.90;;;4.40;99.90;;;;;;5082355;28;20611;-85
2021/03/08 02:54:14;;;;;;;2.10;1.10;;;4.40;99.90;;;;;;5088150;28;20221;-88
2021/03/08 02:56:46;;;;;;;5.40;1.63;;;4.30;99.90;;;;;;5079975;28;20278;-88
2021/03/08 02:59:19;;;;;;;7.67;2.53;;;4.30;99.90;;;;;;5090423;28;20260;-87
2021/03/08 03:01:53;;;;;;;3.47;1.80;;;4.30;99.90;;;;;;5052040;28;20207;-86
2021/03/08 03:04:26;;;;;;;2.93;1.40;;;4.30;99.90;;;;;;5080148;28;20838;-87
2021/03/08 03:06:57;;;;;;;6.50;1.40;;;4.20;99.90;;;;;;5091556;28;20264;-87
2021/03/08 03:09:29;;;;;;;2.93;1.60;;;4.20;99.90;;;;;;5086612;28;20199;-86
2021/03/08 03:12:01;;;;;;;3.47;1.70;;;4.20;99.90;;;;;;5080131;28;20267;-85
2021/03/08 03:14:32;;;;;;;4.47;1.70;;;4.10;99.90;;;;;;5080619;28;20313;-88
2021/03/08 03:17:07;;;;;;;6.53;1.90;;;4.10;99.90;;;;;;5093615;28;20230;-86
2021/03/08 03:19:43;;;;;;;5.07;2.07;;;4.10;99.90;;;;;;5095430;28;20277;-87
2021/03/08 03:22:15;;;;;;;4.80;1.67;;;4.00;99.90;;;;;;5078267;28;20206;-86
2021/03/08 03:24:51;;;;;;;4.97;1.30;;;4.00;99.90;;;;;;5087532;28;20218;-88
2021/03/08 03:27:24;;;;;;;4.43;1.50;;;4.00;99.90;;;;;;5099359;28;20190;-87
2021/03/08 03:29:56;;;;;;;3.63;1.40;;;4.10;99.90;;;;;;5099543;28;20207;-87
2021/03/08 03:32:28;;;;;;;5.60;1.70;;;4.10;99.90;;;;;;5107503;28;20280;-86
2021/03/08 03:34:59;;;;;;;2.40;1.40;;;4.00;99.90;;;;;;5086391;28;20211;-85
2021/03/08 03:37:34;;;;;;;2.63;1.40;;;4.10;99.90;;;;;;5087347;28;20254;-87
2021/03/08 03:40:06;;;;;;;4.97;1.50;;;4.10;99.90;;;;;;5086026;28;20225;-85
2021/03/08 03:42:36;;;;;;;7.13;2.23;;;4.00;99.90;;;;;;5092335;28;20675;-87
2021/03/08 03:45:08;;;;;;;6.30;2.07;;;4.10;99.90;;;;;;5092110;28;20220;-86
2021/03/08 03:47:43;;;;;;;5.00;1.47;;;4.10;99.90;;;;;;5094066;28;20242;-86
2021/03/08 03:50:17;;;;;;;4.27;1.60;;;4.20;99.90;;;;;;5089801;28;20221;-87
2021/03/08 03:52:49;;;;;;;3.57;1.40;;;4.20;99.90;;;;;;5093818;28;20287;-87
2021/03/08 03:55:21;;;;;;;4.73;1.87;;;4.20;99.90;;;;;;5088361;28;20233;-87
2021/03/08 03:58:01;;;;;;;3.47;1.60;;;4.20;99.90;;;;;;5091656;28;20256;-88
2021/03/08 04:00:37;;;;;;;4.23;1.70;;;4.20;99.90;;;;;;5087378;28;20268;-88
2021/03/08 04:03:11;;;;;;;5.27;2.20;;;4.20;99.90;;;;;;5097924;28;20202;-91
2021/03/08 04:05:45;;;;;;;3.53;1.60;;;4.20;99.90;;;;;;5092625;28;20202;-86
2021/03/08 04:08:22;;;;;;;8.17;2.10;;;4.20;99.90;;;;;;5081602;28;20629;-88
2021/03/08 04:10:53;;;;;;;5.73;1.73;;;4.10;99.90;;;;;;5069000;28;20213;-86
2021/03/08 04:13:30;;;;;;;7.57;2.27;;;4.20;99.90;;;;;;5091550;28;20225;-89
2021/03/08 04:16:04;;;;;;;5.30;2.10;;;4.20;99.90;;;;;;5092172;28;20202;-88
2021/03/08 04:18:38;;;;;;;6.00;1.77;;;4.30;99.90;;;;;;5094210;28;20713;-87
2021/03/08 04:21:10;;;;;;;8.63;1.50;;;4.40;99.90;;;;;;5082066;28;20264;-87
2021/03/08 04:23:43;;;;;;;2.57;1.23;;;4.40;99.90;;;;;;5083263;28;20818;-86
2021/03/08 04:26:14;;;;;;;3.77;1.33;;;4.40;99.90;;;;;;5072117;28;20250;-86
2021/03/08 04:28:48;;;;;;;3.97;1.47;;;4.40;99.90;;;;;;5081646;28;20195;-87
2021/03/08 04:31:21;;;;;;;6.47;2.00;;;4.40;99.90;;;;;;5085726;28;20200;-86
2021/03/08 04:34:10;;;;;;;4.57;1.50;;;4.40;99.90;;;;;;5077837;28;20710;-86
2021/03/08 04:36:52;;;;;;;4.27;1.80;;;4.40;99.90;;;;;;5081214;28;20287;-85
2021/03/08 04:39:40;;;;;;;3.27;1.93;;;4.40;99.90;;;;;;5082412;28;20582;-83
2021/03/08 04:42:16;;;;;;;10.27;5.33;;;4.40;99.90;;;;;;5090946;28;20251;-84
2021/03/08 04:44:47;;;;;;;12.63;5.53;;;4.50;99.90;;;;;;5073583;28;20207;-83
2021/03/08 04:47:20;;;;;;;10.43;4.50;;;4.50;99.90;;;;;;5074226;28;20207;-84
2021/03/08 04:49:56;;;;;;;6.57;2.77;;;4.50;99.90;;;;;;5075087;28;20674;-84
2021/03/08 04:52:27;;;;;;;7.23;3.80;;;4.50;99.90;;;;;;5075873;28;20290;-84
2021/03/08 04:54:58;;;;;;;10.07;4.70;;;4.50;99.90;;;;;;5077170;28;20798;-83
2021/03/08 04:57:28;;;;;;;6.67;3.83;;;4.50;99.90;;;;;;5063358;28;20695;-85
2021/03/08 04:59:58;;;;;;;7.17;3.43;;;4.50;99.90;;;;;;5074367;28;20686;-84
2021/03/08 05:02:40;;;;;;;6.07;2.83;;;4.50;99.90;;;;;;5072753;28;20605;-85
2021/03/08 05:05:22;;;;;;;5.00;3.03;;;4.50;99.90;;;;;;5074644;28;20215;-86
2021/03/08 05:07:57;;;;;;;4.13;2.67;;;4.40;99.90;;;;;;5074256;28;20308;-85
2021/03/08 05:10:30;;;;;;;8.30;2.53;;;4.30;99.90;;;;;;5089959;28;20285;-82
2021/03/08 05:13:02;;;;;;;7.20;2.87;;;4.30;99.90;;;;;;5091851;28;20207;-89
2021/03/08 05:15:33;;;;;;;8.33;3.50;;;4.20;99.90;;;;;;5085844;28;20620;-87
2021/03/08 05:18:04;;;;;;;7.60;3.47;;;4.20;99.90;;;;;;5081919;28;20265;-88
2021/03/08 05:20:39;;;;;;;8.20;3.53;;;4.20;99.90;;;;;;5093026;28;20212;-89
2021/03/08 05:23:11;;;;;;;4.80;2.63;;;4.20;99.90;;;;;;5092390;28;20232;-89
2021/03/08 05:25:43;;;;;;;6.10;3.27;;;4.20;99.90;;;;;;5091405;28;20221;-86
2021/03/08 05:28:15;;;;;;;6.47;3.23;;;4.20;99.90;;;;;;5075941;28;20223;-87
2021/03/08 05:30:46;;;;;;;10.70;3.17;;;4.20;99.90;;;;;;5075070;28;20200;-87
2021/03/08 05:33:25;;;;;;;6.07;2.80;;;4.20;99.90;;;;;;5076678;28;20567;-86
2021/03/08 05:35:59;;;;;;;6.80;3.37;;;4.20;99.90;;;;;;5055517;28;20578;-84
2021/03/08 05:38:32;;;;;;;6.30;2.60;;;4.20;99.90;;;;;;5092042;28;20316;-85
2021/03/08 05:41:12;;;;;;;6.93;2.40;;;4.10;99.90;;;;;;5087398;28;20278;-85
2021/03/08 05:43:45;;;;;;;4.43;2.20;;;4.00;99.90;;;;;;5091788;28;20247;-84
2021/03/08 05:46:24;;;;;;;2.30;1.83;;;4.00;99.90;;;;;;5084985;28;20196;-85
2021/03/08 05:49:27;;;;;;;7.40;2.57;;;3.80;99.90;;;;;;5079520;28;20290;-85
2021/03/08 05:52:45;;;;;;;8.57;2.17;;;3.70;99.90;;;;;;5078622;28;20614;-84
2021/03/08 05:55:43;;;;;;;5.13;2.27;;;3.70;99.90;;;;;;5091116;28;20309;-83
2021/03/08 05:58:26;;;;;;;3.53;2.13;;;3.60;99.90;;;;;;5083464;28;20299;-84
2021/03/08 06:01:29;;;;;;;5.83;2.30;;;3.50;99.90;;;;;;5086613;28;20195;-83
2021/03/08 06:04:37;;;;;;;4.77;2.40;;;3.40;99.90;;;;;;5067393;28;20203;-83
2021/03/08 06:07:43;;;;;;;5.10;1.90;;;3.40;99.90;;;;;;5093092;28;20219;-83
2021/03/08 06:10:18;;;;;;;3.07;1.70;;;3.40;99.90;;;;;;5084771;28;20202;-84
2021/03/08 06:12:55;;;;;;;4.73;2.23;;;3.40;99.90;;;;;;5082616;28;20217;-84
2021/03/08 06:15:28;;;;;;;3.47;1.83;;;3.30;99.90;;;;;;5085864;28;20199;-83
2021/03/08 06:17:58;;;;;;;3.60;2.50;;;3.20;99.90;;;;;;5087010;28;20231;-83
2021/03/08 06:20:28;;;;;;;5.30;2.20;;;3.20;99.90;;;;;;5078211;28;20291;-84
2021/03/08 06:23:00;;;;;;;4.97;2.37;;;3.20;99.90;;;;;;5093375;28;20250;-84
2021/03/08 06:25:30;;;;;;;4.03;2.07;;;3.10;99.90;;;;;;5090259;28;20206;-84
2021/03/08 06:28:02;;;;;;;5.67;2.67;;;3.10;99.90;;;;;;5085173;28;20305;-84
2021/03/08 06:30:32;;;;;;;7.33;2.50;;;3.10;99.90;;;;;;5094409;28;20246;-84
2021/03/08 06:33:02;;;;;;;4.50;2.07;;;3.00;99.90;;;;;;5074141;28;20249;-84
2021/03/08 06:35:33;;;;;;;5.87;2.83;;;3.00;99.90;;;;;;5076022;28;20242;-82
2021/03/08 06:38:04;;;;;;;6.70;2.90;;;2.90;99.90;;;;;;5082376;28;20289;-84
2021/03/08 06:40:35;;;;;;;5.17;2.57;;;2.90;99.90;;;;;;5075975;28;20219;-84
2021/03/08 06:43:05;;;;;;;6.03;2.70;;;2.90;99.90;;;;;;5091755;28;20527;-84
2021/03/08 06:45:35;;;;;;;5.30;2.77;;;2.90;99.90;;;;;;5108071;28;20242;-85
2021/03/08 06:48:07;;;;;;;3.97;2.17;;;2.80;99.90;;;;;;5109526;28;20203;-84
2021/03/08 06:50:38;;;;;;;3.10;2.10;;;2.80;99.90;;;;;;5093250;28;20203;-85
2021/03/08 06:53:28;;;;;;;4.63;1.90;;;2.80;99.90;;;;;;5084891;28;20199;-84
2021/03/08 06:56:16;;;;;;;5.57;2.00;;;2.70;99.90;;;;;;5091280;28;20203;-84
2021/03/08 06:58:47;;;;;;;5.40;1.90;;;2.60;99.90;;;;;;5072915;28;20262;-84
2021/03/08 07:01:34;;;;;;;5.40;1.80;;;2.60;99.90;;;;;;5085161;28;20554;-82
2021/03/08 07:04:17;;;;;;;6.97;2.40;;;2.60;99.90;;;;;;5072500;28;20211;-82
2021/03/08 07:07:04;;;;;;;2.37;1.53;;;2.60;99.90;;;;;;5070567;28;20245;-82
2021/03/08 07:09:49;;;;;;;6.17;2.30;;;2.60;99.90;;;;;;5053175;28;20277;-82
2021/03/08 07:12:21;;;;;;;5.30;2.10;;;2.50;99.90;;;;;;5085276;28;20586;-82
2021/03/08 07:15:07;;;;;;;5.67;2.30;;;2.50;99.90;;;;;;5090247;28;20313;-83
2021/03/08 07:17:38;;;;;;;6.63;2.40;;;2.50;99.90;;;;;;5094347;28;20238;-83
2021/03/08 07:20:09;;;;;;;4.07;2.07;;;2.50;99.90;;;;;;5095671;28;20295;-83
2021/03/08 07:22:42;;;;;;;6.00;2.17;;;2.40;99.90;;;;;;5091794;28;20259;-82
2021/03/08 07:25:23;;;;;;;4.03;2.27;;;2.50;99.90;;;;;;5090718;28;20233;-83
2021/03/08 07:27:54;;;;;;;5.37;2.40;;;2.40;99.90;;;;;;5091060;28;20297;-84
2021/03/08 07:30:26;;;;;;;5.10;2.00;;;2.40;99.90;;;;;;5083820;28;20696;-85
2021/03/08 07:33:03;;;;;;;3.03;2.33;;;2.40;99.90;;;;;;5072351;28;20208;-85
2021/03/08 07:35:44;;;;;;;8.40;2.60;;;2.30;99.90;;;;;;5071455;28;20222;-85
2021/03/08 07:38:16;;;;;;;5.30;2.83;;;2.30;99.90;;;;;;5054753;28;20235;-84
2021/03/08 07:40:48;;;;;;;6.97;2.90;;;2.30;99.90;;;;;;5071360;28;20275;-85
2021/03/08 07:43:25;;;;;;;5.47;2.97;;;2.30;99.90;;;;;;5075270;28;20638;-84
2021/03/08 07:45:55;;;;;;;8.43;3.40;;;2.20;99.90;;;;;;5070305;28;20635;-85
2021/03/08 07:48:26;;;;;;;6.37;3.27;;;2.30;99.90;;;;;;5089454;28;20214;-85
2021/03/08 07:50:57;;;;;;;6.63;3.57;;;2.30;99.90;;;;;;5079566;28;20230;-85
2021/03/08 07:53:31;;;;;;;6.57;3.13;;;2.20;99.90;;;;;;5073636;28;20210;-85
2021/03/08 07:56:06;;;;;;;4.70;2.40;;;2.20;99.90;;;;;;5073301;28;20317;-85
2021/03/08 07:58:38;;;;;;;4.23;2.23;;;2.20;99.90;;;;;;5073551;28;20276;-84
2021/03/08 08:01:10;;;;;;;5.47;2.60;;;2.20;99.90;;;;;;5074380;28;20225;-85
2021/03/08 08:03:41;;;;;;;3.83;2.10;;;2.20;99.90;;;;;;5088292;28;20214;-84
2021/03/08 08:06:14;;;;;;;2.70;1.83;;;2.10;99.90;;;;;;5057505;28;20203;-84
2021/03/08 08:08:49;;;;;;;5.47;2.20;;;2.10;99.90;;;;;;5073714;28;20204;-85
2021/03/08 08:11:23;;;;;;;3.57;1.90;;;2.10;99.90;;;;;;5082156;28;20322;-83
2021/03/08 08:13:57;;;;;;;4.40;1.97;;;2.10;99.90;;;;;;5096032;28;20209;-83
2021/03/08 08:16:32;;;;;;;5.03;1.73;;;2.00;99.90;;;;;;5077858;28;20206;-83
2021/03/08 08:19:06;;;;;;;8.07;2.10;;;2.00;99.90;;;;;;5074876;28;20379;-83
2021/03/08 08:21:42;;;;;;;3.80;1.70;;;2.00;99.90;;;;;;5057693;28;20204;-83
2021/03/08 08:24:18;;;;;;;5.70;1.70;;;2.00;99.90;;;;;;5057782;28;20204;-84
2021/03/08 08:26:55;;;;;;;3.70;1.50;;;2.00;99.90;;;;;;5076523;28;20609;-84
2021/03/08 08:29:26;;;;;;;5.40;1.67;;;2.00;99.90;;;;;;5077375;28;20261;-83
2021/03/08 08:32:01;;;;;;;4.37;1.73;;;1.90;99.90;;;;;;5092478;28;20195;-83
2021/03/08 08:34:37;;;;;;;3.17;1.83;;;1.90;99.90;;;;;;5096879;28;20202;-81
2021/03/08 08:37:12;;;;;;;3.87;1.50;;;1.90;99.90;;;;;;5096851;28;20199;-83
2021/03/08 08:39:44;;;;;;;7.20;2.27;;;1.90;99.90;;;;;;5098213;28;20203;-83
2021/03/08 08:42:22;;;;;;;3.13;1.67;;;1.90;99.90;;;;;;5115323;28;20236;-86
2021/03/08 08:44:55;;;;;;;5.57;1.87;;;1.90;99.90;;;;;;5102404;28;20211;-84
2021/03/08 08:47:32;;;;;;;2.47;1.67;;;1.90;99.90;;;;;;5096082;28;20618;-85
2021/03/08 08:50:07;;;;;;;5.57;1.40;;;1.90;99.90;;;;;;5095666;28;20206;-85
2021/03/08 08:52:53;;;;;;;4.13;1.53;;;1.90;99.90;;;;;;5095936;28;20648;-85
2021/03/08 08:55:50;;;;;;;4.63;1.47;;;1.80;99.90;;;;;;5080149;28;20248;-85
2021/03/08 08:58:28;;;;;;;4.73;1.80;;;1.80;99.90;;;;;;5084597;28;20260;-86
2021/03/08 09:01:35;;;;;;;2.97;1.40;;;1.80;99.90;;;;;;5095018;28;20434;-86
2021/03/08 09:04:08;;;;;;;6.17;1.87;;;1.70;99.90;;;;;;5094544;28;20215;-86
2021/03/08 09:06:46;;;;;;;6.13;1.63;;;1.70;99.90;;;;;;5094844;28;20235;-86
2021/03/08 09:09:23;;;;;;;5.23;1.50;;;1.70;99.90;;;;;;5094390;28;20555;-84
2021/03/08 09:11:55;;;;;;;5.03;1.70;;;1.70;99.90;;;;;;5093539;28;20268;-85
2021/03/08 09:14:38;;;;;;;7.37;1.87;;;1.60;99.90;;;;;;5093406;28;20233;-85
2021/03/08 09:17:19;;;;;;;4.77;2.00;;;1.60;99.90;;;;;;5075203;28;20652;-85
2021/03/08 09:19:52;;;;;;;4.90;1.70;;;1.60;99.90;;;;;;5057319;28;20732;-87
2021/03/08 09:22:47;;;;;;;2.63;1.70;;;1.50;99.90;;;;;;5057120;28;20200;-85
2021/03/08 09:25:20;;;;;;;5.37;1.80;;;1.50;99.90;;;;;;5087319;28;20214;-85
2021/03/08 09:27:53;;;;;;;3.67;1.90;;;1.50;99.90;;;;;;5094931;28;20206;-85
2021/03/08 09:30:27;;;;;;;7.23;2.10;;;1.50;99.90;;;;;;5094099;28;20203;-86
2021/03/08 09:33:00;;;;;;;4.27;2.10;;;1.40;99.90;;;;;;5090750;28;20231;-85
2021/03/08 09:35:33;;;;;;;2.57;1.87;;;1.40;99.90;;;;;;5073729;28;20210;-85
2021/03/08 09:38:06;;;;;;;4.30;1.57;;;1.40;99.90;;;;;;5075941;28;20357;-84
2021/03/08 09:40:38;;;;;;;3.90;1.57;;;1.40;99.90;;;;;;5075521;28;20212;-84
2021/03/08 09:43:26;;;;;;;3.73;1.50;;;1.40;99.90;;;;;;5093327;28;20313;-84
2021/03/08 09:46:01;;;;;;;2.60;1.20;;;1.40;99.90;;;;;;5093995;28;20223;-84
2021/03/08 09:48:34;;;;;;;7.63;2.07;;;1.40;99.90;;;;;;5091906;28;20313;-83
2021/03/08 09:51:06;;;;;;;3.77;1.33;;;1.40;99.90;;;;;;5092267;28;20651;-83
2021/03/08 09:53:38;;;;;;;1.80;1.33;;;1.40;99.90;;;;;;5093140;28;20203;-84
2021/03/08 09:56:11;;;;;;;5.50;1.50;;;1.40;99.90;;;;;;5093137;28;20217;-84
2021/03/08 09:58:42;;;;;;;4.13;1.83;;;1.40;99.90;;;;;;5054871;28;20544;-85
2021/03/08 10:01:20;;;;;;;2.40;1.60;;;1.30;99.90;;;;;;5091807;28;20243;-85
2021/03/08 10:03:51;;;;;;;3.80;1.67;;;1.40;99.90;;;;;;5092460;28;20206;-85
2021/03/08 10:06:42;;;;;;;6.70;2.03;;;1.40;99.90;;;;;;5094710;28;20206;-86
2021/03/08 10:09:20;;;;;;;3.90;1.63;;;1.40;99.90;;;;;;5093949;28;20206;-86
2021/03/08 10:12:00;;;;;;;3.90;1.63;;;1.40;99.90;;;;;;5093614;28;20221;-84
2021/03/08 10:14:31;;;;;;;3.00;1.67;;;1.30;99.90;;;;;;5092315;28;20203;-84
2021/03/08 10:17:09;;;;;;;3.13;1.40;;;1.30;99.90;;;;;;5076851;28;20253;-84
2021/03/08 10:19:39;;;;;;;5.47;1.70;;;1.20;99.90;;;;;;5092429;28;20258;-84
2021/03/08 10:22:09;;;;;;;8.53;2.30;;;1.20;99.90;;;;;;5059061;28;20250;-86
2021/03/08 10:24:40;;;;;;;5.73;1.93;;;1.20;99.90;;;;;;5073722;28;20214;-86
2021/03/08 10:27:12;;;;;;;5.83;1.73;;;1.20;99.90;;;;;;5085660;28;20281;-85
2021/03/08 10:29:42;;;;;;;6.93;2.23;;;1.20;99.90;;;;;;5092003;28;20206;-85
2021/03/08 10:32:15;;;;;;;4.73;2.30;;;1.10;99.90;;;;;;5092490;28;20221;-86
2021/03/08 10:34:46;;;;;;;3.97;1.70;;;1.10;99.90;;;;;;5090008;28;20203;-86
2021/03/08 10:37:20;;;;;;;5.00;1.73;;;1.00;99.90;;;;;;5094028;28;20206;-87
2021/03/08 10:39:54;;;;;;;4.30;1.70;;;1.10;99.90;;;;;;5095449;28;20237;-84
2021/03/08 10:42:26;;;;;;;6.37;1.80;;;1.10;99.90;;;;;;5080557;28;20271;-85
2021/03/08 10:44:57;;;;;;;5.70;1.57;;;1.00;99.90;;;;;;5073988;28;20204;-85
2021/03/08 10:47:28;;;;;;;5.63;1.80;;;1.10;99.90;;;;;;5074868;28;20211;-86
2021/03/08 10:49:59;;;;;;;6.33;1.60;;;1.00;99.90;;;;;;5076241;28;20215;-85
2021/03/08 10:52:30;;;;;;;5.63;1.53;;;1.00;99.90;;;;;;5076224;28;20247;-86
2021/03/08 10:54:59;;;;;;;4.20;2.07;;;0.90;99.90;;;;;;5093977;28;20284;-85
2021/03/08 10:57:30;;;;;;;3.23;1.43;;;0.90;99.90;;;;;;5099561;28;20202;-86
2021/03/08 11:00:00;;;;;;;3.57;1.50;;;1.00;99.90;;;;;;5102627;28;20278;-88
2021/03/08 11:02:36;;;;;;;4.50;1.60;;;0.90;99.90;;;;;;5105526;28;20241;-84
2021/03/08 11:05:14;;;;;;;3.67;1.67;;;0.90;99.90;;;;;;5092131;28;20210;-86
2021/03/08 11:07:45;;;;;;;5.80;2.27;;;0.90;99.90;;;;;;5091757;28;20326;-85
2021/03/08 11:10:15;;;;;;;2.63;1.50;;;0.90;99.90;;;;;;5077752;28;20206;-84
2021/03/08 11:12:47;;;;;;;4.47;1.87;;;0.80;99.90;;;;;;5066784;28;20210;-83
2021/03/08 11:15:24;;;;;;;3.43;1.53;;;0.80;99.90;;;;;;5091443;28;20665;-86
2021/03/08 11:17:57;;;;;;;2.73;1.23;;;0.80;99.90;;;;;;5083735;28;20191;-85
2021/03/08 11:20:31;;;;;;;2.43;1.17;;;0.70;99.90;;;;;;5086160;28;20209;-85
2021/03/08 11:23:03;;;;;;;3.40;1.50;;;0.80;99.90;;;;;;5091487;28;20203;-84
2021/03/08 11:25:38;;;;;;;2.93;1.50;;;0.70;99.90;;;;;;5091095;28;20230;-85
2021/03/08 11:28:11;;;;;;;3.80;1.53;;;0.70;99.90;;;;;;5092616;28;20244;-86
2021/03/08 11:30:44;;;;;;;4.33;1.53;;;0.60;99.90;;;;;;5094074;28;20210;-85
2021/03/08 11:33:16;;;;;;;8.20;1.80;;;0.60;99.90;;;;;;5093197;28;20210;-87
2021/03/08 11:35:52;;;;;;;4.77;1.40;;;0.60;99.90;;;;;;5093844;28;20241;-87
2021/03/08 11:38:25;;;;;;;3.43;1.50;;;0.50;99.90;;;;;;5092186;28;20792;-86
2021/03/08 11:40:59;;;;;;;5.83;1.53;;;0.50;99.90;;;;;;5087400;28;20218;-86
2021/03/08 11:43:29;;;;;;;3.73;1.60;;;0.50;99.90;;;;;;5071921;28;20292;-87
2021/03/08 11:45:59;;;;;;;4.67;1.40;;;0.50;99.90;;;;;;5078847;28;20214;-87
2021/03/08 11:48:31;;;;;;;4.50;1.53;;;0.50;99.90;;;;;;5093563;28;20894;-86
2021/03/08 11:51:03;;;;;;;3.37;1.40;;;0.50;99.90;;;;;;5086640;28;20207;-87
2021/03/08 11:53:33;;;;;;;4.23;1.33;;;0.40;99.90;;;;;;5111178;28;20197;-87
2021/03/08 11:56:03;;;;;;;5.53;1.80;;;0.50;99.90;;;;;;5094146;28;20220;-86
2021/03/08 11:58:34;;;;;;;3.97;1.60;;;0.50;99.90;;;;;;5080604;28;20227;-85
2021/03/08 12:01:04;;;;;;;3.13;1.60;;;0.50;99.90;;;;;;5076351;28;20211;-86
2021/03/08 12:03:36;;;;;;;4.83;1.60;;;0.40;99.90;;;;;;5084982;28;20563;-85
2021/03/08 12:06:06;;;;;;;3.77;1.27;;;0.40;99.90;;;;;;5073997;28;20265;-85
2021/03/08 12:08:38;;;;;;;6.53;1.73;;;0.40;99.90;;;;;;5072462;28;20239;-85
2021/03/08 12:11:11;;;;;;;5.27;2.00;;;0.40;99.90;;;;;;5079765;28;20264;-85
2021/03/08 12:13:41;;;;;;;5.60;1.77;;;0.40;99.90;;;;;;5091817;28;20206;-83
2021/03/08 12:16:11;;;;;;;4.37;1.50;;;0.40;99.90;;;;;;5092300;28;20199;-86
2021/03/08 12:18:44;;;;;;;5.93;1.47;;;0.40;99.90;;;;;;5091218;28;20296;-85
2021/03/08 12:21:15;;;;;;;3.07;1.13;;;0.40;99.90;;;;;;5090890;28;20561;-86
2021/03/08 12:23:46;;;;;;;5.07;1.30;;;0.40;99.90;;;;;;5090588;28;20211;-84
2021/03/08 12:26:17;;;;;;;3.53;1.60;;;0.40;99.90;;;;;;5073995;28;20195;-86
2021/03/08 12:28:46;;;;;;;2.67;1.60;;;0.30;99.90;;;;;;5091588;28;20215;-88
2021/03/08 12:31:20;;;;;;;4.80;1.60;;;0.40;99.90;;;;;;5091764;28;20337;-87
2021/03/08 12:33:52;;;;;;;6.27;1.50;;;0.30;99.90;;;;;;5091884;28;20207;-88
2021/03/08 12:36:23;;;;;;;3.03;1.27;;;0.30;99.90;;;;;;5086711;28;20308;-88
2021/03/08 12:38:54;;;;;;;3.97;1.50;;;0.30;99.90;;;;;;5085386;28;20634;-88
2021/03/08 12:41:25;;;;;;;3.30;1.40;;;0.30;99.90;;;;;;5092387;28;20476;-90
2021/03/08 12:43:55;;;;;;;2.80;1.33;;;0.30;99.90;;;;;;5074668;28;20205;-87
2021/03/08 12:46:26;;;;;;;4.70;1.67;;;0.30;99.90;;;;;;5093931;28;20207;-87
2021/03/08 12:48:59;;;;;;;1.93;1.13;;;0.30;99.90;;;;;;5095790;28;20214;-87
2021/03/08 12:51:30;;;;;;;6.17;1.40;;;0.30;99.90;;;;;;5096400;28;20291;-87
2021/03/08 12:54:01;;;;;;;4.13;1.70;;;0.30;99.90;;;;;;5095776;28;20237;-88
2021/03/08 12:56:32;;;;;;;3.73;1.37;;;0.20;99.90;;;;;;5077946;28;20300;-85
2021/03/08 12:59:03;;;;;;;5.53;1.50;;;0.20;99.90;;;;;;5095427;28;20234;-85
2021/03/08 13:01:35;;;;;;;3.83;2.20;;;0.20;99.90;;;;;;5078909;28;20251;-86
2021/03/08 13:04:08;;;;;;;2.90;1.67;;;0.20;99.90;;;;;;5078627;28;20293;-85
2021/03/08 13:06:40;;;;;;;3.43;1.50;;;0.20;99.90;;;;;;5095886;28;20205;-86
2021/03/08 13:09:11;;;;;;;3.93;2.07;;;0.20;99.90;;;;;;5079167;28;20212;-85
2021/03/08 13:11:42;;;;;;;3.87;1.50;;;0.10;99.90;;;;;;5094800;28;20279;-87
2021/03/08 13:14:13;;;;;;;7.00;1.90;;;0.10;99.90;;;;;;5097080;28;20233;-87
2021/03/08 13:16:44;;;;;;;4.87;1.77;;;0.10;99.90;;;;;;5097992;28;20210;-90
2021/03/08 13:19:17;;;;;;;5.60;2.67;;;0.10;99.90;;;;;;5087073;28;20288;-87
2021/03/08 13:21:49;;;;;;;3.90;1.87;;;0.10;99.90;;;;;;5114996;28;20209;-88
2021/03/08 13:24:20;;;;;;;6.30;1.80;;;0.10;99.90;;;;;;5097702;28;20299;-87
2021/03/08 13:26:53;;;;;;;6.60;2.20;;;0.10;99.90;;;;;;5101992;28;20277;-88
2021/03/08 13:29:23;;;;;;;4.80;2.00;;;0.10;99.90;;;;;;5106737;28;20211;-86
2021/03/08 13:31:54;;;;;;;3.90;2.40;;;0.10;99.90;;;;;;5096664;28;20838;-86
2021/03/08 13:34:26;;;;;;;5.50;2.80;;;0.10;99.90;;;;;;5093660;28;20214;-85
2021/03/08 13:36:56;;;;;;;6.20;2.43;;;0.10;99.90;;;;;;5094759;28;20266;-85